sensor_id;sensor_type;location;lat;lon;timestamp;pressure;altitude;pressure_sealevel;temperature;humidity
50292;BME280;36190;54.980;73.388;2022-08-02T00:00:17;99950.91;;;14.99;79.90
50292;BME280;36190;54.980;73.388;2022-08-02T00:02:46;99955.88;;;15.02;79.80
50292;BME280;36190;54.980;73.388;2022-08-02T00:05:14;99953.19;;;15.02;79.71
50292;BME280;36190;54.980;73.388;2022-08-02T00:07:41;99952.56;;;15.07;79.73
50292;BME280;36190;54.980;73.388;2022-08-02T00:10:10;99942.47;;;15.02;79.54
50292;BME280;36190;54.980;73.388;2022-08-02T00:12:38;99961.66;;;15.12;79.54
50292;BME280;36190;54.980;73.388;2022-08-02T00:15:07;99969.94;;;15.18;79.30
50292;BME280;36190;54.980;73.388;2022-08-02T00:17:35;99969.06;;;15.24;79.06
50292;BME280;36190;54.980;73.388;2022-08-02T00:20:05;99966.78;;;15.27;78.86
50292;BME280;36190;54.980;73.388;2022-08-02T00:22:32;99975.91;;;15.33;78.81
50292;BME280;36190;54.980;73.388;2022-08-02T00:25:00;99976.31;;;15.37;78.58
50292;BME280;36190;54.980;73.388;2022-08-02T00:27:27;99980.84;;;15.36;78.55
50292;BME280;36190;54.980;73.388;2022-08-02T00:29:54;99973.22;;;15.33;78.51
50292;BME280;36190;54.980;73.388;2022-08-02T00:32:22;99974.66;;;15.29;78.66
50292;BME280;36190;54.980;73.388;2022-08-02T00:34:49;99975.25;;;15.31;78.49
50292;BME280;36190;54.980;73.388;2022-08-02T00:37:18;99973.41;;;15.32;78.45
50292;BME280;36190;54.980;73.388;2022-08-02T00:39:46;99972.78;;;15.36;78.25
50292;BME280;36190;54.980;73.388;2022-08-02T00:42:13;99982.69;;;15.43;78.10
50292;BME280;36190;54.980;73.388;2022-08-02T00:44:41;99977.50;;;15.48;77.97
50292;BME280;36190;54.980;73.388;2022-08-02T00:47:09;99981.00;;;15.55;77.73
50292;BME280;36190;54.980;73.388;2022-08-02T00:49:36;99981.41;;;15.65;77.38
50292;BME280;36190;54.980;73.388;2022-08-02T00:52:04;99988.19;;;15.75;77.19
50292;BME280;36190;54.980;73.388;2022-08-02T00:54:34;99987.31;;;15.81;76.92
50292;BME280;36190;54.980;73.388;2022-08-02T00:57:01;99996.41;;;15.93;76.64
50292;BME280;36190;54.980;73.388;2022-08-02T00:59:28;99997.63;;;16.04;76.23
50292;BME280;36190;54.980;73.388;2022-08-02T01:01:56;99989.94;;;16.08;75.97
50292;BME280;36190;54.980;73.388;2022-08-02T01:04:23;99986.19;;;16.09;75.99
50292;BME280;36190;54.980;73.388;2022-08-02T01:06:51;99990.34;;;16.12;75.87
50292;BME280;36190;54.980;73.388;2022-08-02T01:09:18;99989.25;;;16.19;75.66
50292;BME280;36190;54.980;73.388;2022-08-02T01:11:47;99992.72;;;16.27;75.30
50292;BME280;36190;54.980;73.388;2022-08-02T01:14:15;99996.81;;;16.36;75.15
50292;BME280;36190;54.980;73.388;2022-08-02T01:16:47;99993.25;;;16.42;74.84
50292;BME280;36190;54.980;73.388;2022-08-02T01:19:32;99999.16;;;16.58;74.70
50292;BME280;36190;54.980;73.388;2022-08-02T01:22:12;99993.53;;;16.66;74.30
50292;BME280;36190;54.980;73.388;2022-08-02T01:25:12;99991.63;;;16.67;73.78
50292;BME280;36190;54.980;73.388;2022-08-02T01:27:51;99993.34;;;16.61;73.74
50292;BME280;36190;54.980;73.388;2022-08-02T01:30:24;99994.84;;;16.57;73.91
50292;BME280;36190;54.980;73.388;2022-08-02T01:32:56;100000.81;;;16.59;73.67
50292;BME280;36190;54.980;73.388;2022-08-02T01:35:29;100002.00;;;16.63;73.54
50292;BME280;36190;54.980;73.388;2022-08-02T01:38:05;99994.56;;;16.65;73.51
50292;BME280;36190;54.980;73.388;2022-08-02T01:40:35;99987.94;;;16.61;73.55
50292;BME280;36190;54.980;73.388;2022-08-02T01:43:04;99993.06;;;16.69;73.23
50292;BME280;36190;54.980;73.388;2022-08-02T01:45:37;99997.59;;;16.75;73.15
50292;BME280;36190;54.980;73.388;2022-08-02T01:48:06;99997.31;;;16.84;72.91
50292;BME280;36190;54.980;73.388;2022-08-02T01:50:35;99996.06;;;16.86;72.63
50292;BME280;36190;54.980;73.388;2022-08-02T01:53:07;100001.38;;;16.93;72.62
50292;BME280;36190;54.980;73.388;2022-08-02T01:55:40;100005.72;;;16.94;72.68
50292;BME280;36190;54.980;73.388;2022-08-02T01:58:10;100008.88;;;16.91;72.73
50292;BME280;36190;54.980;73.388;2022-08-02T02:00:41;100012.16;;;16.93;72.83
50292;BME280;36190;54.980;73.388;2022-08-02T02:03:12;100011.75;;;16.96;72.97
50292;BME280;36190;54.980;73.388;2022-08-02T02:05:40;100014.63;;;17.01;72.83
50292;BME280;36190;54.980;73.388;2022-08-02T02:08:08;100014.19;;;17.04;72.52
50292;BME280;36190;54.980;73.388;2022-08-02T02:10:37;100009.81;;;17.03;72.70
50292;BME280;36190;54.980;73.388;2022-08-02T02:13:07;100014.94;;;17.12;72.66
50292;BME280;36190;54.980;73.388;2022-08-02T02:15:40;100022.59;;;17.15;72.63
50292;BME280;36190;54.980;73.388;2022-08-02T02:18:12;100017.19;;;17.15;72.58
50292;BME280;36190;54.980;73.388;2022-08-02T02:20:41;100025.72;;;17.12;72.61
50292;BME280;36190;54.980;73.388;2022-08-02T02:23:09;100023.66;;;17.14;72.42
50292;BME280;36190;54.980;73.388;2022-08-02T02:25:38;100024.84;;;17.18;72.52
50292;BME280;36190;54.980;73.388;2022-08-02T02:28:11;100026.44;;;17.26;72.17
50292;BME280;36190;54.980;73.388;2022-08-02T02:30:45;100034.16;;;17.41;71.87
50292;BME280;36190;54.980;73.388;2022-08-02T02:33:16;100031.34;;;17.54;71.70
50292;BME280;36190;54.980;73.388;2022-08-02T02:35:45;100031.47;;;17.59;71.53
50292;BME280;36190;54.980;73.388;2022-08-02T02:38:16;100032.25;;;17.67;71.18
50292;BME280;36190;54.980;73.388;2022-08-02T02:40:45;100036.75;;;17.73;70.95
50292;BME280;36190;54.980;73.388;2022-08-02T02:43:13;100035.41;;;17.82;70.60
50292;BME280;36190;54.980;73.388;2022-08-02T02:45:44;100037.31;;;17.94;70.49
50292;BME280;36190;54.980;73.388;2022-08-02T02:48:13;100032.66;;;18.08;70.01
50292;BME280;36190;54.980;73.388;2022-08-02T02:50:42;100039.50;;;18.22;69.79
50292;BME280;36190;54.980;73.388;2022-08-02T02:53:11;100028.16;;;18.32;69.40
50292;BME280;36190;54.980;73.388;2022-08-02T02:55:40;100035.50;;;18.44;69.17
50292;BME280;36190;54.980;73.388;2022-08-02T02:58:08;100043.72;;;18.49;68.87
50292;BME280;36190;54.980;73.388;2022-08-02T03:00:37;100042.28;;;18.46;68.64
50292;BME280;36190;54.980;73.388;2022-08-02T03:03:23;100036.78;;;18.41;68.90
50292;BME280;36190;54.980;73.388;2022-08-02T03:05:50;100045.25;;;18.45;68.62
50292;BME280;36190;54.980;73.388;2022-08-02T03:08:18;100056.16;;;18.50;68.49
50292;BME280;36190;54.980;73.388;2022-08-02T03:10:46;100051.13;;;18.53;68.53
50292;BME280;36190;54.980;73.388;2022-08-02T03:13:15;100054.44;;;18.55;68.06
50292;BME280;36190;54.980;73.388;2022-08-02T03:15:45;100055.72;;;18.53;68.07
50292;BME280;36190;54.980;73.388;2022-08-02T03:18:32;100063.41;;;18.68;67.75
50292;BME280;36190;54.980;73.388;2022-08-02T03:21:01;100068.25;;;18.78;67.52
50292;BME280;36190;54.980;73.388;2022-08-02T03:23:29;100066.16;;;18.92;67.10
50292;BME280;36190;54.980;73.388;2022-08-02T03:25:57;100068.94;;;19.04;66.64
50292;BME280;36190;54.980;73.388;2022-08-02T03:28:25;100065.31;;;19.10;65.88
50292;BME280;36190;54.980;73.388;2022-08-02T03:30:53;100063.03;;;19.07;65.47
50292;BME280;36190;54.980;73.388;2022-08-02T03:33:21;100073.28;;;19.05;65.06
50292;BME280;36190;54.980;73.388;2022-08-02T03:35:53;100072.81;;;19.08;64.70
50292;BME280;36190;54.980;73.388;2022-08-02T03:38:22;100076.84;;;19.17;64.61
50292;BME280;36190;54.980;73.388;2022-08-02T03:40:50;100074.47;;;19.33;64.22
50292;BME280;36190;54.980;73.388;2022-08-02T03:43:18;100065.56;;;19.44;64.05
50292;BME280;36190;54.980;73.388;2022-08-02T03:45:48;100059.31;;;19.44;63.42
50292;BME280;36190;54.980;73.388;2022-08-02T03:48:16;100072.84;;;19.56;63.14
50292;BME280;36190;54.980;73.388;2022-08-02T03:50:46;100078.59;;;19.59;62.94
50292;BME280;36190;54.980;73.388;2022-08-02T03:53:15;100083.56;;;19.62;62.55
50292;BME280;36190;54.980;73.388;2022-08-02T03:55:43;100077.78;;;19.59;62.45
50292;BME280;36190;54.980;73.388;2022-08-02T03:58:16;100079.88;;;19.57;62.58
50292;BME280;36190;54.980;73.388;2022-08-02T04:00:43;100082.00;;;19.55;62.76
50292;BME280;36190;54.980;73.388;2022-08-02T04:03:11;100078.72;;;19.52;62.84
50292;BME280;36190;54.980;73.388;2022-08-02T04:05:38;100083.56;;;19.50;62.89
50292;BME280;36190;54.980;73.388;2022-08-02T04:08:06;100076.47;;;19.49;62.89
50292;BME280;36190;54.980;73.388;2022-08-02T04:10:35;100076.59;;;19.55;63.08
50292;BME280;36190;54.980;73.388;2022-08-02T04:13:16;100079.53;;;19.65;62.99
50292;BME280;36190;54.980;73.388;2022-08-02T04:15:44;100083.06;;;19.77;62.76
50292;BME280;36190;54.980;73.388;2022-08-02T04:18:13;100094.69;;;19.90;62.51
50292;BME280;36190;54.980;73.388;2022-08-02T04:20:42;100098.72;;;19.99;62.14
50292;BME280;36190;54.980;73.388;2022-08-02T04:23:12;100084.94;;;20.01;61.77
50292;BME280;36190;54.980;73.388;2022-08-02T04:25:42;100088.31;;;20.20;61.52
50292;BME280;36190;54.980;73.388;2022-08-02T04:28:11;100087.34;;;20.26;61.10
50292;BME280;36190;54.980;73.388;2022-08-02T04:30:40;100081.56;;;20.34;60.90
50292;BME280;36190;54.980;73.388;2022-08-02T04:33:07;100081.16;;;20.43;60.67
50292;BME280;36190;54.980;73.388;2022-08-02T04:35:35;100089.25;;;20.55;60.44
50292;BME280;36190;54.980;73.388;2022-08-02T04:38:03;100095.69;;;20.66;60.24
50292;BME280;36190;54.980;73.388;2022-08-02T04:40:31;100093.03;;;20.71;59.70
50292;BME280;36190;54.980;73.388;2022-08-02T04:43:00;100096.34;;;20.73;59.78
50292;BME280;36190;54.980;73.388;2022-08-02T04:45:28;100089.94;;;20.79;59.21
50292;BME280;36190;54.980;73.388;2022-08-02T04:47:56;100090.66;;;20.86;59.07
50292;BME280;36190;54.980;73.388;2022-08-02T04:50:24;100088.59;;;20.94;58.81
50292;BME280;36190;54.980;73.388;2022-08-02T04:52:51;100091.06;;;20.95;58.48
50292;BME280;36190;54.980;73.388;2022-08-02T04:55:18;100094.13;;;20.99;58.34
50292;BME280;36190;54.980;73.388;2022-08-02T04:57:45;100097.22;;;21.08;58.23
50292;BME280;36190;54.980;73.388;2022-08-02T05:00:24;100100.38;;;21.16;58.03
50292;BME280;36190;54.980;73.388;2022-08-02T05:02:51;100096.09;;;21.21;58.20
50292;BME280;36190;54.980;73.388;2022-08-02T05:05:19;100099.56;;;21.33;58.17
50292;BME280;36190;54.980;73.388;2022-08-02T05:07:46;100103.16;;;21.56;57.80
50292;BME280;36190;54.980;73.388;2022-08-02T05:10:14;100105.09;;;21.78;57.35
50292;BME280;36190;54.980;73.388;2022-08-02T05:12:41;100105.81;;;21.90;56.42
50292;BME280;36190;54.980;73.388;2022-08-02T05:15:11;100100.97;;;21.92;54.55
50292;BME280;36190;54.980;73.388;2022-08-02T05:17:43;100092.88;;;21.97;53.88
50292;BME280;36190;54.980;73.388;2022-08-02T05:20:11;100095.66;;;22.03;53.47
50292;BME280;36190;54.980;73.388;2022-08-02T05:22:39;100090.22;;;22.03;53.36
50292;BME280;36190;54.980;73.388;2022-08-02T05:25:07;100087.81;;;22.06;52.73
50292;BME280;36190;54.980;73.388;2022-08-02T05:27:35;100095.81;;;22.13;52.44
50292;BME280;36190;54.980;73.388;2022-08-02T05:30:03;100098.56;;;22.18;52.11
50292;BME280;36190;54.980;73.388;2022-08-02T05:32:31;100098.56;;;22.18;51.71
50292;BME280;36190;54.980;73.388;2022-08-02T05:35:00;100100.16;;;22.14;51.14
50292;BME280;36190;54.980;73.388;2022-08-02T05:37:28;100097.44;;;22.14;51.21
50292;BME280;36190;54.980;73.388;2022-08-02T05:39:56;100096.44;;;22.20;51.35
50292;BME280;36190;54.980;73.388;2022-08-02T05:42:23;100082.72;;;22.32;51.21
50292;BME280;36190;54.980;73.388;2022-08-02T05:44:51;100089.06;;;22.43;51.01
50292;BME280;36190;54.980;73.388;2022-08-02T05:47:18;100091.84;;;22.48;50.81
50292;BME280;36190;54.980;73.388;2022-08-02T05:49:45;100101.84;;;22.43;50.38
50292;BME280;36190;54.980;73.388;2022-08-02T05:52:16;100104.78;;;22.36;50.08
50292;BME280;36190;54.980;73.388;2022-08-02T05:54:48;100103.09;;;22.35;50.13
50292;BME280;36190;54.980;73.388;2022-08-02T05:57:26;100098.28;;;22.42;49.94
50292;BME280;36190;54.980;73.388;2022-08-02T06:02:38;100096.16;;;22.44;49.20
50292;BME280;36190;54.980;73.388;2022-08-02T06:05:10;100085.78;;;22.41;49.31
50292;BME280;36190;54.980;73.388;2022-08-02T06:07:42;100084.47;;;22.44;49.21
50292;BME280;36190;54.980;73.388;2022-08-02T06:10:11;100085.28;;;22.44;49.31
50292;BME280;36190;54.980;73.388;2022-08-02T06:12:45;100090.72;;;22.44;49.03
50292;BME280;36190;54.980;73.388;2022-08-02T06:15:16;100076.75;;;22.35;49.36
50292;BME280;36190;54.980;73.388;2022-08-02T06:17:44;100091.28;;;22.46;49.55
50292;BME280;36190;54.980;73.388;2022-08-02T06:20:12;100084.09;;;22.57;49.44
50292;BME280;36190;54.980;73.388;2022-08-02T06:22:43;100086.91;;;22.67;49.32
50292;BME280;36190;54.980;73.388;2022-08-02T06:25:11;100082.63;;;22.77;49.49
50292;BME280;36190;54.980;73.388;2022-08-02T06:27:39;100077.50;;;22.80;48.96
50292;BME280;36190;54.980;73.388;2022-08-02T06:30:08;100080.00;;;22.87;48.79
50292;BME280;36190;54.980;73.388;2022-08-02T06:32:36;100067.28;;;22.93;48.51
50292;BME280;36190;54.980;73.388;2022-08-02T06:35:04;100079.84;;;22.99;48.52
50292;BME280;36190;54.980;73.388;2022-08-02T06:37:36;100074.69;;;23.03;48.48
50292;BME280;36190;54.980;73.388;2022-08-02T06:40:13;100071.19;;;23.02;48.51
50292;BME280;36190;54.980;73.388;2022-08-02T06:42:48;100075.53;;;23.03;48.36
50292;BME280;36190;54.980;73.388;2022-08-02T06:45:17;100084.50;;;23.04;48.13
50292;BME280;36190;54.980;73.388;2022-08-02T06:47:44;100082.25;;;22.96;48.34
50292;BME280;36190;54.980;73.388;2022-08-02T06:50:12;100078.13;;;22.88;48.23
50292;BME280;36190;54.980;73.388;2022-08-02T06:52:39;100081.31;;;22.79;48.00
50292;BME280;36190;54.980;73.388;2022-08-02T06:55:09;100080.69;;;22.72;48.07
50292;BME280;36190;54.980;73.388;2022-08-02T06:57:36;100080.94;;;22.71;48.14
50292;BME280;36190;54.980;73.388;2022-08-02T07:00:05;100086.19;;;22.77;48.15
50292;BME280;36190;54.980;73.388;2022-08-02T07:02:34;100077.59;;;22.91;48.01
50292;BME280;36190;54.980;73.388;2022-08-02T07:05:02;100073.59;;;22.99;48.18
50292;BME280;36190;54.980;73.388;2022-08-02T07:07:29;100079.94;;;23.10;47.57
50292;BME280;36190;54.980;73.388;2022-08-02T07:09:57;100071.88;;;23.25;47.31
50292;BME280;36190;54.980;73.388;2022-08-02T07:12:27;100085.63;;;23.41;47.28
50292;BME280;36190;54.980;73.388;2022-08-02T07:14:55;100074.78;;;23.46;46.84
50292;BME280;36190;54.980;73.388;2022-08-02T07:17:22;100083.78;;;23.46;46.07
50292;BME280;36190;54.980;73.388;2022-08-02T07:19:50;100089.25;;;23.52;46.10
50292;BME280;36190;54.980;73.388;2022-08-02T07:22:17;100089.78;;;23.54;45.86
50292;BME280;36190;54.980;73.388;2022-08-02T07:24:47;100084.63;;;23.57;45.92
50292;BME280;36190;54.980;73.388;2022-08-02T07:27:15;100086.66;;;23.72;45.98
50292;BME280;36190;54.980;73.388;2022-08-02T07:29:44;100088.88;;;23.86;45.49
50292;BME280;36190;54.980;73.388;2022-08-02T07:32:11;100094.66;;;23.95;45.10
50292;BME280;36190;54.980;73.388;2022-08-02T07:34:39;100083.75;;;23.95;44.84
50292;BME280;36190;54.980;73.388;2022-08-02T07:37:06;100086.53;;;24.05;44.95
50292;BME280;36190;54.980;73.388;2022-08-02T07:39:34;100085.50;;;24.11;45.14
50292;BME280;36190;54.980;73.388;2022-08-02T07:42:01;100076.78;;;24.14;44.77
50292;BME280;36190;54.980;73.388;2022-08-02T07:44:28;100089.94;;;24.33;45.20
50292;BME280;36190;54.980;73.388;2022-08-02T07:47:01;100086.94;;;24.40;44.55
50292;BME280;36190;54.980;73.388;2022-08-02T07:49:29;100088.31;;;24.42;44.15
50292;BME280;36190;54.980;73.388;2022-08-02T07:51:56;100092.66;;;24.38;44.09
50292;BME280;36190;54.980;73.388;2022-08-02T07:54:24;100090.22;;;24.37;44.22
50292;BME280;36190;54.980;73.388;2022-08-02T07:56:51;100083.94;;;24.47;44.12
50292;BME280;36190;54.980;73.388;2022-08-02T07:59:19;100083.41;;;24.55;43.66
50292;BME280;36190;54.980;73.388;2022-08-02T08:01:46;100086.72;;;24.72;43.82
50292;BME280;36190;54.980;73.388;2022-08-02T08:04:16;100088.94;;;24.96;43.42
50292;BME280;36190;54.980;73.388;2022-08-02T08:06:43;100093.34;;;25.23;42.97
50292;BME280;36190;54.980;73.388;2022-08-02T08:09:14;100087.31;;;25.47;43.19
50292;BME280;36190;54.980;73.388;2022-08-02T08:11:41;100098.19;;;25.68;42.50
50292;BME280;36190;54.980;73.388;2022-08-02T08:14:08;100100.09;;;25.78;42.80
50292;BME280;36190;54.980;73.388;2022-08-02T08:16:36;100104.97;;;25.81;42.57
50292;BME280;36190;54.980;73.388;2022-08-02T08:19:03;100099.47;;;26.02;42.22
50292;BME280;36190;54.980;73.388;2022-08-02T08:21:32;100111.66;;;26.30;41.89
50292;BME280;36190;54.980;73.388;2022-08-02T08:24:00;100111.09;;;26.33;41.75
50292;BME280;36190;54.980;73.388;2022-08-02T08:26:29;100108.63;;;26.32;41.61
50292;BME280;36190;54.980;73.388;2022-08-02T08:28:56;100100.09;;;26.44;41.53
50292;BME280;36190;54.980;73.388;2022-08-02T08:31:25;100106.47;;;26.74;41.25
50292;BME280;36190;54.980;73.388;2022-08-02T08:33:52;100106.78;;;27.12;40.65
50292;BME280;36190;54.980;73.388;2022-08-02T08:36:20;100110.94;;;27.34;39.63
50292;BME280;36190;54.980;73.388;2022-08-02T08:38:49;100114.72;;;27.43;39.20
50292;BME280;36190;54.980;73.388;2022-08-02T08:41:16;100098.19;;;27.54;39.07
50292;BME280;36190;54.980;73.388;2022-08-02T08:43:44;100105.09;;;27.76;38.49
50292;BME280;36190;54.980;73.388;2022-08-02T08:46:20;100101.66;;;27.89;37.73
50292;BME280;36190;54.980;73.388;2022-08-02T08:48:52;100091.31;;;28.05;37.95
50292;BME280;36190;54.980;73.388;2022-08-02T08:51:23;100100.19;;;28.21;37.38
50292;BME280;36190;54.980;73.388;2022-08-02T08:53:53;100089.91;;;28.32;36.95
50292;BME280;36190;54.980;73.388;2022-08-02T08:56:23;100089.44;;;28.25;36.75
50292;BME280;36190;54.980;73.388;2022-08-02T08:58:55;100093.81;;;28.26;36.73
50292;BME280;36190;54.980;73.388;2022-08-02T09:01:22;100091.25;;;28.35;36.41
50292;BME280;36190;54.980;73.388;2022-08-02T09:03:50;100087.09;;;28.37;36.19
50292;BME280;36190;54.980;73.388;2022-08-02T09:06:17;100092.50;;;28.42;36.24
50292;BME280;36190;54.980;73.388;2022-08-02T09:08:45;100090.78;;;28.47;35.98
50292;BME280;36190;54.980;73.388;2022-08-02T09:11:15;100097.97;;;28.62;35.96
50292;BME280;36190;54.980;73.388;2022-08-02T09:13:49;100101.00;;;28.99;35.49
50292;BME280;36190;54.980;73.388;2022-08-02T09:16:27;100094.97;;;29.16;34.89
50292;BME280;36190;54.980;73.388;2022-08-02T09:18:55;100099.84;;;29.19;34.71
50292;BME280;36190;54.980;73.388;2022-08-02T09:21:23;100105.47;;;29.28;35.11
50292;BME280;36190;54.980;73.388;2022-08-02T09:23:51;100105.50;;;29.42;34.34
50292;BME280;36190;54.980;73.388;2022-08-02T09:26:22;100097.28;;;29.70;34.10
50292;BME280;36190;54.980;73.388;2022-08-02T09:28:51;100107.00;;;30.09;33.80
50292;BME280;36190;54.980;73.388;2022-08-02T09:31:25;100101.50;;;30.09;33.84
50292;BME280;36190;54.980;73.388;2022-08-02T09:33:54;100097.72;;;30.05;33.91
50292;BME280;36190;54.980;73.388;2022-08-02T09:36:22;100101.16;;;30.25;33.83
50292;BME280;36190;54.980;73.388;2022-08-02T09:38:55;100087.16;;;30.35;33.61
50292;BME280;36190;54.980;73.388;2022-08-02T09:41:25;100106.03;;;30.28;33.19
50292;BME280;36190;54.980;73.388;2022-08-02T09:43:54;100104.41;;;30.27;33.16
50292;BME280;36190;54.980;73.388;2022-08-02T09:46:24;100114.00;;;30.29;32.92
50292;BME280;36190;54.980;73.388;2022-08-02T09:48:53;100099.69;;;30.41;32.77
50292;BME280;36190;54.980;73.388;2022-08-02T09:51:23;100105.88;;;30.84;32.51
50292;BME280;36190;54.980;73.388;2022-08-02T09:53:53;100114.47;;;31.28;32.27
50292;BME280;36190;54.980;73.388;2022-08-02T09:56:22;100114.84;;;31.35;31.67
50292;BME280;36190;54.980;73.388;2022-08-02T09:58:51;100109.03;;;31.37;30.77
50292;BME280;36190;54.980;73.388;2022-08-02T10:01:20;100103.47;;;31.60;30.99
50292;BME280;36190;54.980;73.388;2022-08-02T10:03:56;100113.63;;;31.91;30.37
50292;BME280;36190;54.980;73.388;2022-08-02T10:06:25;100113.34;;;32.01;30.38
50292;BME280;36190;54.980;73.388;2022-08-02T10:08:52;100108.16;;;32.08;30.24
50292;BME280;36190;54.980;73.388;2022-08-02T10:11:20;100110.44;;;32.24;30.38
50292;BME280;36190;54.980;73.388;2022-08-02T10:13:51;100109.69;;;32.59;30.14
50292;BME280;36190;54.980;73.388;2022-08-02T10:16:20;100107.59;;;33.00;29.59
50292;BME280;36190;54.980;73.388;2022-08-02T10:18:48;100098.72;;;33.33;29.63
50292;BME280;36190;54.980;73.388;2022-08-02T10:21:19;100113.44;;;33.64;28.87
50292;BME280;36190;54.980;73.388;2022-08-02T10:23:49;100113.44;;;33.64;29.09
50292;BME280;36190;54.980;73.388;2022-08-02T10:26:18;100119.16;;;33.58;29.09
50292;BME280;36190;54.980;73.388;2022-08-02T10:28:48;100099.34;;;33.47;29.46
50292;BME280;36190;54.980;73.388;2022-08-02T10:31:21;100106.53;;;33.49;29.34
50292;BME280;36190;54.980;73.388;2022-08-02T10:33:51;100105.38;;;33.41;29.04
50292;BME280;36190;54.980;73.388;2022-08-02T10:36:21;100103.84;;;33.61;29.36
50292;BME280;36190;54.980;73.388;2022-08-02T10:38:53;100102.53;;;33.97;28.71
50292;BME280;36190;54.980;73.388;2022-08-02T10:41:42;100111.84;;;34.44;28.34
50292;BME280;36190;54.980;73.388;2022-08-02T10:44:20;100101.72;;;34.48;27.92
50292;BME280;36190;54.980;73.388;2022-08-02T10:46:49;100112.94;;;34.31;28.28
50292;BME280;36190;54.980;73.388;2022-08-02T10:49:18;100107.78;;;34.20;28.16
50292;BME280;36190;54.980;73.388;2022-08-02T10:52:06;100103.41;;;34.40;27.94
50292;BME280;36190;54.980;73.388;2022-08-02T10:54:36;100096.84;;;34.45;28.11
50292;BME280;36190;54.980;73.388;2022-08-02T10:57:14;100107.53;;;34.77;27.67
50292;BME280;36190;54.980;73.388;2022-08-02T10:59:42;100119.56;;;35.15;27.48
50292;BME280;36190;54.980;73.388;2022-08-02T11:02:11;100112.78;;;35.24;26.83
50292;BME280;36190;54.980;73.388;2022-08-02T11:05:08;100118.25;;;35.46;26.38
50292;BME280;36190;54.980;73.388;2022-08-02T11:07:39;100109.09;;;35.45;26.70
50292;BME280;36190;54.980;73.388;2022-08-02T11:10:33;100120.38;;;35.74;26.68
50292;BME280;36190;54.980;73.388;2022-08-02T11:13:09;100118.50;;;36.15;27.11
50292;BME280;36190;54.980;73.388;2022-08-02T11:15:59;100117.31;;;36.29;26.00
50292;BME280;36190;54.980;73.388;2022-08-02T11:19:02;100114.78;;;36.36;26.16
50292;BME280;36190;54.980;73.388;2022-08-02T11:21:30;100126.53;;;36.45;26.19
50292;BME280;36190;54.980;73.388;2022-08-02T11:24:26;100127.63;;;36.28;25.92
50292;BME280;36190;54.980;73.388;2022-08-02T11:26:54;100127.09;;;35.85;26.61
50292;BME280;36190;54.980;73.388;2022-08-02T11:29:31;100131.69;;;35.81;26.13
50292;BME280;36190;54.980;73.388;2022-08-02T11:31:58;100130.53;;;35.95;26.39
50292;BME280;36190;54.980;73.388;2022-08-02T11:34:27;100141.00;;;36.51;26.12
50292;BME280;36190;54.980;73.388;2022-08-02T11:36:57;100128.09;;;37.00;25.07
50292;BME280;36190;54.980;73.388;2022-08-02T11:39:24;100132.56;;;37.17;25.14
50292;BME280;36190;54.980;73.388;2022-08-02T11:41:53;100136.59;;;37.20;24.59
50292;BME280;36190;54.980;73.388;2022-08-02T11:44:23;100124.50;;;37.28;24.44
50292;BME280;36190;54.980;73.388;2022-08-02T11:46:55;100137.38;;;37.20;23.93
50292;BME280;36190;54.980;73.388;2022-08-02T11:49:22;100133.19;;;36.98;24.50
50292;BME280;36190;54.980;73.388;2022-08-02T11:51:57;100137.94;;;36.97;24.52
50292;BME280;36190;54.980;73.388;2022-08-02T11:54:30;100136.53;;;36.75;24.18
50292;BME280;36190;54.980;73.388;2022-08-02T11:57:15;100138.22;;;36.92;24.37
50292;BME280;36190;54.980;73.388;2022-08-02T11:59:44;100139.38;;;36.91;24.19
50292;BME280;36190;54.980;73.388;2022-08-02T12:02:11;100140.41;;;36.86;23.94
50292;BME280;36190;54.980;73.388;2022-08-02T12:04:39;100150.38;;;36.59;23.94
50292;BME280;36190;54.980;73.388;2022-08-02T12:07:08;100143.66;;;36.47;24.02
50292;BME280;36190;54.980;73.388;2022-08-02T12:09:36;100150.13;;;36.64;24.14
50292;BME280;36190;54.980;73.388;2022-08-02T12:12:04;100145.28;;;37.18;23.46
50292;BME280;36190;54.980;73.388;2022-08-02T12:14:31;100150.63;;;37.72;23.33
50292;BME280;36190;54.980;73.388;2022-08-02T12:17:07;100154.56;;;38.03;22.89
50292;BME280;36190;54.980;73.388;2022-08-02T12:19:52;100150.13;;;38.18;22.77
50292;BME280;36190;54.980;73.388;2022-08-02T12:22:25;100158.84;;;38.00;22.62
50292;BME280;36190;54.980;73.388;2022-08-02T12:24:54;100155.28;;;37.83;22.75
50292;BME280;36190;54.980;73.388;2022-08-02T12:27:33;100148.94;;;37.67;22.76
50292;BME280;36190;54.980;73.388;2022-08-02T12:30:04;100161.72;;;37.39;22.50
50292;BME280;36190;54.980;73.388;2022-08-02T12:32:32;100157.50;;;37.29;22.78
50292;BME280;36190;54.980;73.388;2022-08-02T12:35:04;100151.69;;;37.35;23.00
50292;BME280;36190;54.980;73.388;2022-08-02T12:37:34;100154.25;;;37.27;23.09
50292;BME280;36190;54.980;73.388;2022-08-02T12:40:18;100161.72;;;37.39;22.56
50292;BME280;36190;54.980;73.388;2022-08-02T12:42:46;100162.69;;;37.31;22.77
50292;BME280;36190;54.980;73.388;2022-08-02T12:45:14;100174.75;;;37.51;22.71
50292;BME280;36190;54.980;73.388;2022-08-02T12:47:45;100174.75;;;37.51;22.80
50292;BME280;36190;54.980;73.388;2022-08-02T12:50:16;100171.59;;;37.37;22.79
50292;BME280;36190;54.980;73.388;2022-08-02T12:52:46;100179.94;;;37.37;23.19
50292;BME280;36190;54.980;73.388;2022-08-02T12:55:16;100171.44;;;37.62;23.05
50292;BME280;36190;54.980;73.388;2022-08-02T12:57:55;100156.63;;;37.74;22.69